createdAt,value
2019-05-10T00:00:02.502Z,0.00
2019-05-10T00:01:02.565Z,0.00
2019-05-10T00:02:02.589Z,0.00
2019-05-10T00:03:02.622Z,0.00
2019-05-10T00:04:02.666Z,0.00
2019-05-10T00:05:02.704Z,0.00
2019-05-10T00:06:02.744Z,0.00
2019-05-10T00:07:02.787Z,0.00
2019-05-10T00:08:02.825Z,0.00
2019-05-10T00:09:02.879Z,0.00
2019-05-10T00:10:02.907Z,0.00
2019-05-10T00:11:02.959Z,0.00
2019-05-10T00:12:03.078Z,0.00
2019-05-10T00:13:03.035Z,0.00
2019-05-10T00:14:03.070Z,0.00
2019-05-10T00:15:03.117Z,0.00
2019-05-10T00:16:03.153Z,0.00
2019-05-10T00:17:03.246Z,0.00
2019-05-10T00:18:03.232Z,0.00
2019-05-10T00:19:03.282Z,0.00
2019-05-10T00:20:03.416Z,0.00
2019-05-10T00:21:03.369Z,0.00
2019-05-10T00:22:03.393Z,0.00
2019-05-10T00:23:03.434Z,0.00
2019-05-10T00:24:03.484Z,0.00
2019-05-10T00:25:04.970Z,0.00
2019-05-10T00:26:03.556Z,0.00
2019-05-10T00:27:03.646Z,0.00
2019-05-10T00:28:03.646Z,0.00
2019-05-10T00:29:03.678Z,0.00
2019-05-10T00:30:03.726Z,0.00
2019-05-10T00:31:03.773Z,0.00
2019-05-10T00:32:03.799Z,0.00
2019-05-10T00:33:03.847Z,0.00
2019-05-10T00:34:03.880Z,0.00
2019-05-10T00:35:03.921Z,0.00
2019-05-10T00:36:03.960Z,0.00
2019-05-10T00:37:04.008Z,0.00
2019-05-10T00:38:04.042Z,0.00
2019-05-10T00:39:04.091Z,0.00
2019-05-10T00:40:04.122Z,0.00
2019-05-10T00:41:04.165Z,0.00
2019-05-10T00:42:04.208Z,0.00
2019-05-10T00:43:04.258Z,0.00
2019-05-10T00:44:04.297Z,0.00
2019-05-10T00:45:04.332Z,0.00
2019-05-10T00:46:04.369Z,0.00
2019-05-10T00:47:04.414Z,0.00
2019-05-10T00:48:04.456Z,0.00
2019-05-10T00:49:04.500Z,0.00
2019-05-10T00:50:04.527Z,0.00
2019-05-10T00:51:04.566Z,0.00
2019-05-10T00:52:04.608Z,0.00
2019-05-10T00:53:04.648Z,0.00
2019-05-10T00:54:04.688Z,0.00
2019-05-10T00:55:17.869Z,0.00
2019-05-10T00:56:04.769Z,0.00
2019-05-10T00:57:04.815Z,0.00
2019-05-10T00:58:04.931Z,0.00
2019-05-10T00:59:04.892Z,0.00
2019-05-10T01:00:04.930Z,0.00
2019-05-10T01:01:04.971Z,0.00
2019-05-10T01:02:05.010Z,0.00
2019-05-10T01:03:05.053Z,0.00
2019-05-10T01:04:05.093Z,0.00
2019-05-10T01:05:05.135Z,0.00
2019-05-10T01:06:05.515Z,0.00
2019-05-10T01:07:05.265Z,0.00
2019-05-10T01:08:05.253Z,0.00
2019-05-10T01:09:05.304Z,0.00
2019-05-10T01:10:05.335Z,0.00
2019-05-10T01:11:05.381Z,0.00
2019-05-10T01:12:05.419Z,0.00
2019-05-10T01:13:05.457Z,0.00
2019-05-10T01:14:05.507Z,0.00
2019-05-10T01:15:05.544Z,0.00
2019-05-10T01:16:05.584Z,0.00
2019-05-10T01:17:05.620Z,0.00
2019-05-10T01:18:05.659Z,0.00
2019-05-10T01:19:05.700Z,0.00
2019-05-10T01:20:05.741Z,0.00
2019-05-10T01:21:05.786Z,0.00
2019-05-10T01:22:05.829Z,0.00
2019-05-10T01:23:05.862Z,0.00
2019-05-10T01:24:05.901Z,0.00
2019-05-10T01:25:05.950Z,0.00
2019-05-10T01:26:05.984Z,0.00
2019-05-10T01:27:06.023Z,0.00
2019-05-10T01:28:06.377Z,0.00
2019-05-10T01:29:06.108Z,0.00
2019-05-10T01:30:06.149Z,0.00
2019-05-10T01:31:06.189Z,0.00
2019-05-10T01:32:06.229Z,0.00
2019-05-10T01:33:06.274Z,0.00
2019-05-10T01:34:06.311Z,0.00
2019-05-10T01:35:06.351Z,0.00
2019-05-10T01:36:06.390Z,0.00
2019-05-10T01:37:06.431Z,0.00
2019-05-10T01:38:06.471Z,0.00
2019-05-10T01:39:06.512Z,0.00
2019-05-10T01:40:06.555Z,0.00
2019-05-10T01:41:06.593Z,0.00
2019-05-10T01:42:06.636Z,0.00
2019-05-10T01:43:06.680Z,0.00
2019-05-10T01:44:06.717Z,0.00
2019-05-10T01:45:06.770Z,0.00
2019-05-10T01:46:06.798Z,0.00
2019-05-10T01:47:06.836Z,0.00
2019-05-10T01:48:06.879Z,0.00
2019-05-10T01:49:06.919Z,0.00
2019-05-10T01:50:06.969Z,0.00
2019-05-10T01:51:06.997Z,0.00
2019-05-10T01:52:07.040Z,0.00
2019-05-10T01:53:07.087Z,0.00
2019-05-10T01:54:07.118Z,0.00
2019-05-10T01:55:07.159Z,0.00
2019-05-10T01:56:07.207Z,0.00
2019-05-10T01:57:07.241Z,0.00
2019-05-10T01:58:07.287Z,0.00
2019-05-10T01:59:07.323Z,0.00
2019-05-10T02:00:07.364Z,0.00
2019-05-10T02:01:07.421Z,0.00
2019-05-10T02:02:07.444Z,0.00
2019-05-10T02:03:07.485Z,0.00
2019-05-10T02:04:07.533Z,0.00
2019-05-10T02:05:07.575Z,0.00
2019-05-10T02:06:07.607Z,0.00
2019-05-10T02:07:07.648Z,0.00
2019-05-10T02:08:07.686Z,0.00
2019-05-10T02:09:07.728Z,0.00
2019-05-10T02:10:07.778Z,0.00
2019-05-10T02:11:07.813Z,0.00
2019-05-10T02:12:07.852Z,0.00
2019-05-10T02:13:08.025Z,0.00
2019-05-10T02:14:07.996Z,0.00
2019-05-10T02:15:07.973Z,0.00
2019-05-10T02:16:08.015Z,0.00
2019-05-10T02:17:08.054Z,0.00
2019-05-10T02:18:08.093Z,0.00
2019-05-10T02:19:08.139Z,0.00
2019-05-10T02:20:08.175Z,0.00
2019-05-10T02:21:08.216Z,0.00
2019-05-10T02:22:08.257Z,0.00
2019-05-10T02:23:08.295Z,0.00
2019-05-10T02:24:08.354Z,0.00
2019-05-10T02:25:08.377Z,0.00
2019-05-10T02:26:09.985Z,0.00
2019-05-10T02:27:08.459Z,0.00
2019-05-10T02:28:08.505Z,0.00
2019-05-10T02:29:08.540Z,0.00
2019-05-10T02:30:08.584Z,0.00
2019-05-10T02:31:08.623Z,0.00
2019-05-10T02:32:08.662Z,0.00
2019-05-10T02:33:08.706Z,0.00
2019-05-10T02:34:08.754Z,0.00
2019-05-10T02:35:08.785Z,0.00
2019-05-10T02:36:08.826Z,0.00
2019-05-10T02:37:08.865Z,0.00
2019-05-10T02:38:08.905Z,0.00
2019-05-10T02:39:08.956Z,0.00
2019-05-10T02:40:08.987Z,0.00
2019-05-10T02:41:09.028Z,0.00
2019-05-10T02:42:09.069Z,0.00
2019-05-10T02:43:09.109Z,0.00
2019-05-10T02:44:09.153Z,0.00
2019-05-10T02:45:09.318Z,0.00
2019-05-10T02:46:09.302Z,0.00
2019-05-10T02:47:09.271Z,0.00
2019-05-10T02:48:09.312Z,0.00
2019-05-10T02:49:09.351Z,0.00
2019-05-10T02:50:09.391Z,0.00
2019-05-10T02:51:09.433Z,0.00
2019-05-10T02:52:09.472Z,0.00
2019-05-10T02:53:09.514Z,0.00
2019-05-10T02:54:09.553Z,0.00
2019-05-10T02:55:09.595Z,0.00
2019-05-10T02:56:27.840Z,0.00
2019-05-10T02:57:09.677Z,0.00
2019-05-10T02:58:14.253Z,0.00
2019-05-10T02:59:09.757Z,0.00
2019-05-10T03:00:09.797Z,0.00
2019-05-10T03:01:09.836Z,4.00
2019-05-10T03:02:09.878Z,4.00
2019-05-10T03:03:09.931Z,4.00
2019-05-10T03:04:09.975Z,4.00
2019-05-10T03:05:09.998Z,4.00
2019-05-10T03:06:10.041Z,4.00
2019-05-10T03:07:10.080Z,8.00
2019-05-10T03:08:10.122Z,4.00
2019-05-10T03:09:10.164Z,8.00
2019-05-10T03:10:10.255Z,8.00
2019-05-10T03:11:10.240Z,8.00
2019-05-10T03:12:10.284Z,8.00
2019-05-10T03:13:10.327Z,8.00
2019-05-10T03:14:10.371Z,8.00
2019-05-10T03:15:10.406Z,8.00
2019-05-10T03:16:10.446Z,8.00
2019-05-10T03:17:10.486Z,12.00
2019-05-10T03:18:10.530Z,12.00
2019-05-10T03:19:10.566Z,16.00
2019-05-10T03:20:10.620Z,16.00
2019-05-10T03:21:10.651Z,20.00
2019-05-10T03:22:10.686Z,24.00
2019-05-10T03:23:10.730Z,28.00
2019-05-10T03:24:10.769Z,36.00
2019-05-10T03:25:10.810Z,44.00
2019-05-10T03:26:10.847Z,56.00
2019-05-10T03:27:10.897Z,64.00
2019-05-10T03:28:10.930Z,80.00
2019-05-10T03:29:10.971Z,96.00
2019-05-10T03:30:11.015Z,112.00
2019-05-10T03:31:11.064Z,136.00
2019-05-10T03:32:11.097Z,156.00
2019-05-10T03:33:11.135Z,180.00
2019-05-10T03:34:11.173Z,204.00
2019-05-10T03:35:11.243Z,224.00
2019-05-10T03:36:11.259Z,248.00
2019-05-10T03:37:11.307Z,272.00
2019-05-10T03:38:11.334Z,300.00
2019-05-10T03:39:11.373Z,328.00
2019-05-10T03:40:11.416Z,352.00
2019-05-10T03:41:11.457Z,380.00
2019-05-10T03:42:11.500Z,412.00
2019-05-10T03:43:11.549Z,436.00
2019-05-10T03:44:11.580Z,468.00
2019-05-10T03:45:11.618Z,504.00
2019-05-10T03:46:11.666Z,548.00
2019-05-10T03:47:11.714Z,604.00
2019-05-10T03:48:11.739Z,656.00
2019-05-10T03:49:11.778Z,712.00
2019-05-10T03:50:11.817Z,756.00
2019-05-10T03:51:11.867Z,788.00
2019-05-10T03:52:11.901Z,816.00
2019-05-10T03:53:11.952Z,836.00
2019-05-10T03:54:12.020Z,856.00
2019-05-10T03:55:12.017Z,876.00
2019-05-10T03:56:12.060Z,896.00
2019-05-10T03:57:14.451Z,932.00
2019-05-10T03:58:12.147Z,980.00
2019-05-10T03:59:12.179Z,1044.00
2019-05-10T04:00:12.220Z,1116.00
2019-05-10T04:01:12.263Z,1192.00
2019-05-10T04:02:12.311Z,1272.00
2019-05-10T04:03:12.345Z,1376.00
2019-05-10T04:04:12.389Z,1500.00
2019-05-10T04:05:12.439Z,1620.00
2019-05-10T04:06:12.469Z,1740.00
2019-05-10T04:07:12.501Z,1848.00
2019-05-10T04:08:12.552Z,1964.00
2019-05-10T04:09:12.583Z,2052.00
2019-05-10T04:10:12.623Z,2120.00
2019-05-10T04:11:12.667Z,2180.00
2019-05-10T04:12:12.704Z,2216.00
2019-05-10T04:13:12.758Z,2232.00
2019-05-10T04:14:12.790Z,2252.00
2019-05-10T04:15:12.830Z,2276.00
2019-05-10T04:16:12.869Z,2300.00
2019-05-10T04:17:12.907Z,2300.00
2019-05-10T04:18:12.948Z,2340.00
2019-05-10T04:19:12.986Z,2384.00
2019-05-10T04:20:13.027Z,2432.00
2019-05-10T04:21:13.074Z,2544.00
2019-05-10T04:22:13.105Z,2744.00
2019-05-10T04:23:13.146Z,3036.00
2019-05-10T04:24:13.186Z,3272.00
2019-05-10T04:25:13.229Z,3332.00
2019-05-10T04:26:13.276Z,3292.00
2019-05-10T04:27:30.568Z,3188.00
2019-05-10T04:28:13.351Z,3128.00
2019-05-10T04:29:13.393Z,3124.00
2019-05-10T04:30:13.428Z,3112.00
2019-05-10T04:31:13.469Z,3112.00
2019-05-10T04:32:13.510Z,3164.00
2019-05-10T04:33:13.556Z,3184.00
2019-05-10T04:34:13.593Z,3132.00
2019-05-10T04:35:13.646Z,3088.00
2019-05-10T04:36:13.674Z,3112.00
2019-05-10T04:37:13.714Z,3168.00
2019-05-10T04:38:13.754Z,3244.00
2019-05-10T04:39:13.882Z,3340.00
2019-05-10T04:40:13.846Z,3444.00
2019-05-10T04:41:13.890Z,3528.00
2019-05-10T04:42:13.914Z,3696.00
2019-05-10T04:43:13.953Z,3748.00
2019-05-10T04:44:13.994Z,3668.00
2019-05-10T04:45:14.050Z,3668.00
2019-05-10T04:46:14.075Z,3736.00
2019-05-10T04:47:14.114Z,3808.00
2019-05-10T04:48:14.232Z,3780.00
2019-05-10T04:49:14.196Z,3912.00
2019-05-10T04:50:14.231Z,4136.00
2019-05-10T04:51:14.272Z,4456.00
2019-05-10T04:52:14.313Z,4636.00
2019-05-10T04:53:14.352Z,4760.00
2019-05-10T04:54:14.394Z,4884.00
2019-05-10T04:55:14.432Z,4724.00
2019-05-10T04:56:14.473Z,4520.00
2019-05-10T04:57:14.517Z,4508.00
2019-05-10T04:58:14.570Z,4800.00
2019-05-10T04:59:14.606Z,5052.00
2019-05-10T05:00:14.633Z,5200.00
2019-05-10T05:01:14.674Z,5516.00
2019-05-10T05:02:14.716Z,5852.00
2019-05-10T05:03:14.758Z,5672.00
2019-05-10T05:04:14.794Z,5608.00
2019-05-10T05:05:14.833Z,5828.00
2019-05-10T05:06:14.954Z,6184.00
2019-05-10T05:07:14.913Z,6324.00
2019-05-10T05:08:14.955Z,6256.00
2019-05-10T05:09:14.994Z,6112.00
2019-05-10T05:10:15.035Z,6072.00
2019-05-10T05:11:15.074Z,5684.00
2019-05-10T05:12:15.133Z,5172.00
2019-05-10T05:13:15.157Z,5064.00
2019-05-10T05:14:15.195Z,5152.00
2019-05-10T05:15:15.250Z,4988.00
2019-05-10T05:16:15.279Z,4924.00
2019-05-10T05:17:15.317Z,5056.00
2019-05-10T05:18:15.356Z,5244.00
2019-05-10T05:19:15.402Z,5592.00
2019-05-10T05:20:15.436Z,5868.00
2019-05-10T05:21:15.477Z,6064.00
2019-05-10T05:22:15.524Z,6072.00
2019-05-10T05:23:15.561Z,6096.00
2019-05-10T05:24:16.994Z,6084.00
2019-05-10T05:25:15.639Z,5916.00
2019-05-10T05:26:15.685Z,5728.00
2019-05-10T05:27:15.720Z,5656.00
2019-05-10T05:28:18.310Z,5392.00
2019-05-10T05:29:15.801Z,5312.00
2019-05-10T05:30:15.842Z,5444.00
2019-05-10T05:31:15.889Z,5636.00
2019-05-10T05:32:15.929Z,5896.00
2019-05-10T05:33:15.970Z,6124.00
2019-05-10T05:34:16.003Z,6240.00
2019-05-10T05:35:16.061Z,6656.00
2019-05-10T05:36:16.084Z,7492.00
2019-05-10T05:37:16.130Z,8168.00
2019-05-10T05:38:16.166Z,9796.00
2019-05-10T05:39:16.209Z,11052.00
2019-05-10T05:40:16.249Z,10804.00
2019-05-10T05:41:16.462Z,11596.00
2019-05-10T05:42:16.336Z,11716.00
2019-05-10T05:43:16.367Z,12324.00
2019-05-10T05:44:20.275Z,11732.00
2019-05-10T05:45:16.457Z,11728.00
2019-05-10T05:46:16.491Z,11200.00
2019-05-10T05:47:16.538Z,10720.00
2019-05-10T05:48:21.424Z,10704.00
2019-05-10T05:49:16.613Z,10548.00
2019-05-10T05:50:16.660Z,10552.00
2019-05-10T05:51:16.693Z,10616.00
2019-05-10T05:52:16.735Z,10516.00
2019-05-10T05:53:16.777Z,10664.00
2019-05-10T05:54:20.785Z,10880.00
2019-05-10T05:55:16.861Z,11048.00
2019-05-10T05:56:16.910Z,11120.00
2019-05-10T05:57:16.942Z,11128.00
2019-05-10T05:58:26.695Z,10940.00
2019-05-10T05:59:23.183Z,10784.00
2019-05-10T06:00:17.070Z,10684.00
2019-05-10T06:01:26.795Z,10800.00
2019-05-10T06:02:17.156Z,10932.00
2019-05-10T06:03:27.704Z,10960.00
2019-05-10T06:04:17.238Z,10968.00
2019-05-10T06:05:32.592Z,10788.00
2019-05-10T06:06:21.737Z,10420.00
2019-05-10T06:07:17.365Z,9996.00
2019-05-10T06:08:22.706Z,9652.00
2019-05-10T06:09:17.455Z,9524.00
2019-05-10T06:10:19.783Z,9596.00
2019-05-10T06:11:17.533Z,9740.00
2019-05-10T06:12:17.572Z,9956.00
2019-05-10T06:13:17.616Z,10232.00
2019-05-10T06:14:17.658Z,10584.00
2019-05-10T06:15:17.703Z,10828.00
2019-05-10T06:16:17.743Z,10676.00
2019-05-10T06:17:17.783Z,10692.00
2019-05-10T06:18:17.825Z,10704.00
2019-05-10T06:19:20.500Z,10648.00
2019-05-10T06:20:17.910Z,10524.00
2019-05-10T06:21:24.527Z,10272.00
2019-05-10T06:22:17.993Z,9924.00
2019-05-10T06:23:18.062Z,9740.00
2019-05-10T06:24:18.082Z,9652.00
2019-05-10T06:25:18.142Z,9620.00
2019-05-10T06:26:26.420Z,9672.00
2019-05-10T06:27:18.220Z,9856.00
2019-05-10T06:28:27.016Z,10088.00
2019-05-10T06:29:19.880Z,10388.00
2019-05-10T06:30:18.336Z,10608.00
2019-05-10T06:31:18.380Z,10892.00
2019-05-10T06:32:18.422Z,11460.00
2019-05-10T06:33:18.467Z,12376.00
2019-05-10T06:34:18.509Z,13560.00
2019-05-10T06:35:19.423Z,14772.00
2019-05-10T06:36:18.605Z,16032.00
2019-05-10T06:37:18.640Z,15688.00
2019-05-10T06:38:18.678Z,16352.00
2019-05-10T06:39:18.721Z,16672.00
2019-05-10T06:40:32.685Z,16704.00
2019-05-10T06:41:19.217Z,16448.00
2019-05-10T06:42:18.851Z,16576.00
2019-05-10T06:43:18.899Z,16384.00
2019-05-10T06:44:18.934Z,15788.00
2019-05-10T06:45:18.976Z,15336.00
2019-05-10T06:46:23.527Z,15016.00
2019-05-10T06:47:21.783Z,14636.00
2019-05-10T06:48:27.529Z,14272.00
2019-05-10T06:49:19.151Z,14140.00
2019-05-10T06:50:28.615Z,14228.00
2019-05-10T06:51:19.236Z,13752.00
2019-05-10T06:52:21.963Z,12264.00
2019-05-10T06:53:19.342Z,11516.00
2019-05-10T06:54:19.366Z,10744.00
2019-05-10T06:55:19.410Z,9556.00
2019-05-10T06:56:19.453Z,8176.00
2019-05-10T06:57:19.497Z,7540.00
2019-05-10T06:58:19.545Z,6860.00
2019-05-10T06:59:24.981Z,6692.00
2019-05-10T07:00:19.629Z,6716.00
2019-05-10T07:01:19.670Z,6764.00
2019-05-10T07:02:25.758Z,7176.00
2019-05-10T07:03:19.766Z,7612.00
2019-05-10T07:04:19.800Z,8712.00
2019-05-10T07:05:19.844Z,8800.00
2019-05-10T07:06:19.887Z,8420.00
2019-05-10T07:07:32.855Z,7876.00
2019-05-10T07:08:20.657Z,7508.00
2019-05-10T07:09:20.020Z,7060.00
2019-05-10T07:10:25.210Z,7196.00
2019-05-10T07:11:20.103Z,7268.00
2019-05-10T07:12:20.145Z,6936.00
2019-05-10T07:13:20.188Z,6800.00
2019-05-10T07:14:25.388Z,6932.00
2019-05-10T07:15:20.273Z,7036.00
2019-05-10T07:16:24.436Z,7248.00
2019-05-10T07:17:20.360Z,7844.00
2019-05-10T07:18:22.506Z,8132.00
2019-05-10T07:19:20.446Z,7816.00
2019-05-10T07:20:23.827Z,7868.00
2019-05-10T07:21:20.532Z,9140.00
2019-05-10T07:22:21.795Z,9824.00
2019-05-10T07:23:20.628Z,9792.00
2019-05-10T07:24:24.900Z,9332.00
2019-05-10T07:25:20.706Z,10888.00
2019-05-10T07:26:24.328Z,15352.00
2019-05-10T07:27:20.799Z,14020.00
2019-05-10T07:28:20.843Z,10424.00
2019-05-10T07:29:29.547Z,9324.00
2019-05-10T07:30:20.925Z,8276.00
2019-05-10T07:31:23.511Z,7948.00
2019-05-10T07:32:22.317Z,9688.00
2019-05-10T07:33:21.051Z,12776.00
2019-05-10T07:34:21.100Z,11752.00
2019-05-10T07:35:21.138Z,9564.00
2019-05-10T07:36:27.569Z,8276.00
2019-05-10T07:37:21.225Z,7836.00
2019-05-10T07:38:23.612Z,8188.00
2019-05-10T07:39:21.309Z,7712.00
2019-05-10T07:40:21.354Z,7496.00
2019-05-10T07:41:26.637Z,7304.00
2019-05-10T07:42:21.446Z,7240.00
2019-05-10T07:43:26.526Z,7720.00
2019-05-10T07:44:21.533Z,8592.00
2019-05-10T07:45:25.478Z,10044.00
2019-05-10T07:46:21.611Z,10320.00
2019-05-10T07:47:23.827Z,9832.00
2019-05-10T07:48:23.274Z,11044.00
2019-05-10T07:49:23.758Z,10792.00
2019-05-10T07:50:21.790Z,11988.00
2019-05-10T07:51:28.102Z,15252.00
2019-05-10T07:52:21.871Z,15488.00
2019-05-10T07:53:22.994Z,14576.00
2019-05-10T07:54:21.958Z,15228.00
2019-05-10T07:55:27.690Z,16416.00
2019-05-10T07:56:22.046Z,18208.00
2019-05-10T07:57:24.784Z,16320.00
2019-05-10T07:58:22.133Z,15608.00
2019-05-10T07:59:28.213Z,14196.00
2019-05-10T08:00:25.226Z,13440.00
2019-05-10T08:01:32.167Z,14496.00
2019-05-10T08:02:22.307Z,15372.00
2019-05-10T08:03:23.862Z,14816.00
2019-05-10T08:04:29.121Z,15764.00
2019-05-10T08:05:22.440Z,16448.00
2019-05-10T08:06:22.484Z,15980.00
2019-05-10T08:07:22.528Z,16024.00
2019-05-10T08:08:22.570Z,18112.00
2019-05-10T08:09:22.627Z,17504.00
2019-05-10T08:10:22.665Z,17568.00
2019-05-10T08:11:22.703Z,18528.00
2019-05-10T08:12:22.746Z,18976.00
2019-05-10T08:13:25.159Z,18816.00
2019-05-10T08:14:25.225Z,18368.00
2019-05-10T08:15:24.751Z,18208.00
2019-05-10T08:16:23.166Z,18912.00
2019-05-10T08:17:22.970Z,18304.00
2019-05-10T08:18:25.386Z,16448.00
2019-05-10T08:19:23.068Z,15472.00
2019-05-10T08:20:41.025Z,15384.00
2019-05-10T08:21:26.262Z,16704.00
2019-05-10T08:22:23.194Z,18304.00
2019-05-10T08:23:27.852Z,16768.00
2019-05-10T08:24:23.283Z,17920.00
2019-05-10T08:26:24.778Z,17280.00
2019-05-10T08:27:23.417Z,18272.00
2019-05-10T08:28:28.002Z,20320.00
2019-05-10T08:29:23.520Z,17600.00
2019-05-10T08:30:28.941Z,16228.00
2019-05-10T08:31:26.202Z,17888.00
2019-05-10T08:32:25.647Z,17792.00
2019-05-10T08:33:23.690Z,17632.00
2019-05-10T08:34:29.055Z,20192.00
2019-05-10T08:35:23.776Z,18944.00
2019-05-10T08:36:23.824Z,20064.00
2019-05-10T08:37:33.083Z,21248.00
2019-05-10T08:38:23.911Z,20576.00
2019-05-10T08:39:23.955Z,18656.00
2019-05-10T08:40:28.165Z,18560.00
2019-05-10T08:41:24.045Z,20960.00
2019-05-10T08:42:37.904Z,21856.00
2019-05-10T08:43:24.609Z,19328.00
2019-05-10T08:44:24.182Z,18208.00
2019-05-10T08:45:24.234Z,19232.00
2019-05-10T08:46:34.817Z,18976.00
2019-05-10T08:47:27.615Z,18624.00
2019-05-10T08:48:27.410Z,17792.00
2019-05-10T08:49:31.374Z,19040.00
2019-05-10T08:50:42.491Z,18624.00
2019-05-10T08:51:24.504Z,17376.00
2019-05-10T08:52:30.661Z,17408.00
2019-05-10T08:53:24.589Z,16768.00
2019-05-10T08:54:26.530Z,17664.00
2019-05-10T08:55:24.679Z,19488.00
2019-05-10T08:56:24.733Z,20800.00
2019-05-10T08:57:24.772Z,20064.00
2019-05-10T08:58:31.492Z,17216.00
2019-05-10T08:59:26.790Z,14304.00
2019-05-10T09:00:41.458Z,14868.00
2019-05-10T09:01:30.204Z,15400.00
2019-05-10T09:02:29.013Z,15208.00
2019-05-10T09:03:25.042Z,14776.00
2019-05-10T09:04:25.090Z,15160.00
2019-05-10T09:05:28.941Z,14452.00
2019-05-10T09:06:25.177Z,12580.00
2019-05-10T09:07:29.492Z,11820.00
2019-05-10T09:08:28.530Z,10316.00
2019-05-10T09:09:25.327Z,9364.00
2019-05-10T09:10:25.361Z,9880.00
2019-05-10T09:11:25.404Z,10700.00
2019-05-10T09:12:25.451Z,11224.00
2019-05-10T09:13:28.686Z,12436.00
2019-05-10T09:14:25.538Z,12072.00
2019-05-10T09:15:25.591Z,9204.00
2019-05-10T09:16:29.049Z,8360.00
2019-05-10T09:17:28.305Z,8956.00
2019-05-10T09:18:25.717Z,9312.00
2019-05-10T09:19:36.162Z,10876.00
2019-05-10T09:20:26.598Z,14316.00
2019-05-10T09:21:25.861Z,17504.00
2019-05-10T09:22:33.911Z,16960.00
2019-05-10T09:23:25.954Z,15592.00
2019-05-10T09:24:25.997Z,14816.00
2019-05-10T09:25:29.562Z,13260.00
2019-05-10T09:26:26.078Z,12124.00
2019-05-10T09:27:29.201Z,12412.00
2019-05-10T09:28:26.179Z,14216.00
2019-05-10T09:29:27.443Z,12308.00
2019-05-10T09:30:26.254Z,11288.00
2019-05-10T09:31:26.384Z,12140.00
2019-05-10T09:32:29.094Z,15312.00
2019-05-10T09:33:26.390Z,17664.00
2019-05-10T09:34:27.309Z,17216.00
2019-05-10T09:35:26.477Z,17120.00
2019-05-10T09:36:31.064Z,15988.00
2019-05-10T09:37:26.566Z,15684.00
2019-05-10T09:38:28.749Z,15920.00
2019-05-10T09:39:26.654Z,15164.00
2019-05-10T09:40:26.713Z,13516.00
2019-05-10T09:41:27.814Z,12464.00
2019-05-10T09:42:35.023Z,12456.00
2019-05-10T09:43:26.841Z,11964.00
2019-05-10T09:44:26.880Z,10688.00
2019-05-10T09:45:26.937Z,9352.00
2019-05-10T09:46:26.968Z,8808.00
2019-05-10T09:47:27.014Z,9936.00
2019-05-10T09:48:27.057Z,13180.00
2019-05-10T09:49:27.107Z,14940.00
2019-05-10T09:50:30.437Z,14564.00
2019-05-10T09:51:30.043Z,12836.00
2019-05-10T09:52:27.238Z,12092.00
2019-05-10T09:53:30.312Z,11952.00
2019-05-10T09:54:29.367Z,11536.00
2019-05-10T09:55:28.007Z,11312.00
2019-05-10T09:56:27.678Z,10640.00
2019-05-10T09:57:27.938Z,10408.00
2019-05-10T09:58:28.416Z,9968.00
2019-05-10T09:59:27.869Z,9924.00
2019-05-10T10:00:30.259Z,9160.00
2019-05-10T10:01:28.253Z,8032.00
2019-05-10T10:02:33.646Z,7936.00
2019-05-10T10:03:30.115Z,8432.00
2019-05-10T10:04:28.259Z,9024.00
2019-05-10T10:05:27.832Z,8508.00
2019-05-10T10:06:29.843Z,8696.00
2019-05-10T10:07:31.799Z,8380.00
2019-05-10T10:08:28.374Z,8076.00
2019-05-10T10:09:33.693Z,8408.00
2019-05-10T10:10:32.199Z,8620.00
2019-05-10T10:11:28.084Z,8596.00
2019-05-10T10:12:28.946Z,8696.00
2019-05-10T10:13:39.278Z,8892.00
2019-05-10T10:14:28.454Z,9128.00
2019-05-10T10:15:33.218Z,9408.00
2019-05-10T10:16:28.353Z,9424.00
2019-05-10T10:17:30.777Z,9284.00
2019-05-10T10:18:28.514Z,8908.00
2019-05-10T10:19:28.440Z,8936.00
2019-05-10T10:20:30.011Z,9520.00
2019-05-10T10:21:35.044Z,9628.00
2019-05-10T10:22:28.588Z,10204.00
2019-05-10T10:23:33.048Z,10380.00
2019-05-10T10:24:28.654Z,10516.00
2019-05-10T10:25:30.033Z,10152.00
2019-05-10T10:26:28.743Z,9796.00
2019-05-10T10:27:34.607Z,9680.00
2019-05-10T10:28:28.831Z,9468.00
2019-05-10T10:29:33.894Z,9208.00
2019-05-10T10:30:31.385Z,8664.00
2019-05-10T10:31:33.145Z,8032.00
2019-05-10T10:32:31.561Z,8220.00
2019-05-10T10:33:29.528Z,8464.00
2019-05-10T10:34:32.567Z,8584.00
2019-05-10T10:35:29.902Z,9248.00
2019-05-10T10:36:29.184Z,9648.00
2019-05-10T10:37:31.312Z,10044.00
2019-05-10T10:38:31.287Z,10380.00
2019-05-10T10:39:29.315Z,10096.00
2019-05-10T10:40:29.358Z,10156.00
2019-05-10T10:41:31.797Z,10756.00
2019-05-10T10:42:29.445Z,12284.00
2019-05-10T10:43:29.489Z,13808.00
2019-05-10T10:44:29.542Z,15196.00
2019-05-10T10:45:29.578Z,16672.00
2019-05-10T10:46:29.626Z,17376.00
2019-05-10T10:47:32.136Z,17248.00
2019-05-10T10:48:29.710Z,16480.00
2019-05-10T10:49:31.929Z,15524.00
2019-05-10T10:50:29.796Z,15124.00
2019-05-10T10:51:32.340Z,15128.00
2019-05-10T10:52:29.885Z,15204.00
2019-05-10T10:53:29.939Z,15248.00
2019-05-10T10:54:36.180Z,15124.00
2019-05-10T10:55:36.254Z,14556.00
2019-05-10T10:56:30.062Z,14252.00
2019-05-10T10:57:30.109Z,14236.00
2019-05-10T10:58:30.157Z,14312.00
2019-05-10T10:59:30.197Z,14848.00
2019-05-10T11:00:30.240Z,15228.00
2019-05-10T11:01:46.074Z,15452.00
2019-05-10T11:02:33.652Z,15460.00
2019-05-10T11:03:30.924Z,14916.00
2019-05-10T11:04:30.425Z,14392.00
2019-05-10T11:05:30.463Z,13648.00
2019-05-10T11:06:30.508Z,12664.00
2019-05-10T11:07:32.875Z,12052.00
2019-05-10T11:08:32.855Z,11840.00
2019-05-10T11:09:31.133Z,11920.00
2019-05-10T11:10:31.297Z,12136.00
2019-05-10T11:11:38.914Z,11996.00
2019-05-10T11:12:30.897Z,11548.00
2019-05-10T11:13:43.911Z,11056.00
2019-05-10T11:14:32.050Z,10472.00
2019-05-10T11:15:35.847Z,9952.00
2019-05-10T11:16:30.952Z,9544.00
2019-05-10T11:17:30.997Z,9240.00
2019-05-10T11:18:31.741Z,9096.00
2019-05-10T11:19:31.682Z,8960.00
2019-05-10T11:20:31.851Z,8780.00
2019-05-10T11:21:33.242Z,8524.00
2019-05-10T11:22:31.859Z,8244.00
2019-05-10T11:23:38.731Z,8008.00
2019-05-10T11:24:31.309Z,7848.00
2019-05-10T11:25:31.360Z,7700.00
2019-05-10T11:26:34.952Z,7516.00
2019-05-10T11:27:31.440Z,7456.00
2019-05-10T11:28:38.613Z,7564.00
2019-05-10T11:29:31.532Z,7816.00
2019-05-10T11:30:32.493Z,8068.00
2019-05-10T11:31:31.619Z,8176.00
2019-05-10T11:32:31.723Z,8204.00
2019-05-10T11:33:33.746Z,8184.00
2019-05-10T11:34:37.366Z,8160.00
2019-05-10T11:35:34.411Z,8268.00
2019-05-10T11:36:31.844Z,8476.00
2019-05-10T11:37:35.993Z,8576.00
2019-05-10T11:38:32.003Z,8284.00
2019-05-10T11:39:33.197Z,7756.00
2019-05-10T11:40:34.892Z,7648.00
2019-05-10T11:41:32.136Z,7768.00
2019-05-10T11:42:32.104Z,7972.00
2019-05-10T11:43:32.150Z,8108.00
2019-05-10T11:44:32.193Z,8024.00
2019-05-10T11:45:35.308Z,7712.00
2019-05-10T11:46:32.284Z,7508.00
2019-05-10T11:47:32.325Z,7348.00
2019-05-10T11:48:36.989Z,7276.00
2019-05-10T11:49:32.414Z,7444.00
2019-05-10T11:50:35.265Z,7796.00
2019-05-10T11:51:32.506Z,8252.00
2019-05-10T11:52:34.680Z,8740.00
2019-05-10T11:53:32.590Z,9152.00
2019-05-10T11:54:32.639Z,9724.00
2019-05-10T11:55:35.795Z,10776.00
2019-05-10T11:56:32.721Z,12428.00
2019-05-10T11:57:33.114Z,13616.00
2019-05-10T11:58:37.672Z,13728.00
2019-05-10T11:59:38.256Z,13500.00
2019-05-10T12:00:34.329Z,13076.00
2019-05-10T12:01:32.942Z,12816.00
2019-05-10T12:03:33.032Z,12424.00
2019-05-10T12:04:39.285Z,12776.00
2019-05-10T12:05:33.121Z,13672.00
2019-05-10T12:06:33.167Z,14612.00
2019-05-10T12:07:40.357Z,15680.00
2019-05-10T12:08:33.256Z,16640.00
2019-05-10T12:09:33.298Z,17600.00
2019-05-10T12:10:33.342Z,18528.00
2019-05-10T12:11:39.647Z,19584.00
2019-05-10T12:12:50.708Z,20640.00
2019-05-10T12:13:33.478Z,21536.00
2019-05-10T12:14:33.549Z,22528.00
2019-05-10T12:15:33.565Z,23392.00
2019-05-10T12:16:33.798Z,23360.00
2019-05-10T12:17:33.655Z,21664.00
2019-05-10T12:18:36.253Z,18688.00
2019-05-10T12:19:47.783Z,16448.00